Time;durP1;ratioP1;P1;durP2;ratioP2;P2;SDS_P1;SDS_P2;PMS_P1;PMS_P2;Temp;Humidity;BMP_temperature;BMP_pressure;BME280_temperature;BME280_humidity;BME280_pressure;Samples;Min_cycle;Max_cycle;Signal;HPM_P1;HPM_P2
2024/01/22 00:01:58;;;;;;;3.37;2.47;;;;;;;;;;10497890;28;20227;-67
2024/01/22 00:06:59;;;;;;;1.93;1.83;;;;;;;;;;10497580;28;20215;-67
2024/01/22 00:11:59;;;;;;;4.07;2.57;;;;;;;;;;10497727;28;20224;-67
2024/01/22 00:16:59;;;;;;;4.57;2.87;;;;;;;;;;10497483;28;20320;-67
2024/01/22 00:21:59;;;;;;;2.53;1.90;;;;;;;;;;10497379;28;20183;-67
2024/01/22 00:26:59;;;;;;;2.40;2.20;;;;;;;;;;10496838;28;20215;-67
2024/01/22 00:32:00;;;;;;;3.60;3.03;;;;;;;;;;10496888;28;20211;-67
2024/01/22 00:37:00;;;;;;;4.47;2.97;;;;;;;;;;10496518;28;20218;-67
2024/01/22 00:42:00;;;;;;;3.07;2.23;;;;;;;;;;10496623;28;20190;-67
2024/01/22 00:47:00;;;;;;;7.20;3.40;;;;;;;;;;10495803;28;20227;-67
2024/01/22 00:52:00;;;;;;;3.43;2.70;;;;;;;;;;10496170;28;20712;-67
2024/01/22 00:57:00;;;;;;;5.67;2.93;;;;;;;;;;10494677;28;20207;-67
2024/01/22 01:02:01;;;;;;;5.00;3.63;;;;;;;;;;10495725;28;20195;-67
2024/01/22 01:07:01;;;;;;;5.43;3.57;;;;;;;;;;10495550;28;20207;-67
2024/01/22 01:12:01;;;;;;;5.33;2.77;;;;;;;;;;10495158;28;20214;-67
2024/01/22 01:17:01;;;;;;;5.40;3.87;;;;;;;;;;10495179;28;20642;-67
2024/01/22 01:22:01;;;;;;;8.03;3.80;;;;;;;;;;10494247;28;20195;-67
2024/01/22 01:27:02;;;;;;;7.13;4.97;;;;;;;;;;10494700;28;20217;-67
2024/01/22 01:32:02;;;;;;;5.60;4.33;;;;;;;;;;10494418;28;20715;-67
2024/01/22 01:37:03;;;;;;;8.67;4.17;;;;;;;;;;10494237;28;20705;-67
2024/01/22 01:42:03;;;;;;;8.70;5.43;;;;;;;;;;10494255;28;20214;-67
2024/01/22 01:47:04;;;;;;;6.40;3.60;;;;;;;;;;10493517;28;20305;-67
2024/01/22 01:52:05;;;;;;;7.40;4.90;;;;;;;;;;10493790;28;20222;-67
2024/01/22 01:57:05;;;;;;;7.50;4.73;;;;;;;;;;10493205;28;20203;-68
2024/01/22 02:02:06;;;;;;;5.60;3.77;;;;;;;;;;10493060;28;20300;-68
2024/01/22 02:07:06;;;;;;;6.23;4.10;;;;;;;;;;10492614;28;20225;-68
2024/01/22 02:12:06;;;;;;;7.13;4.37;;;;;;;;;;10491095;28;20211;-68
2024/01/22 02:17:06;;;;;;;6.17;3.53;;;;;;;;;;10492801;28;20222;-68
2024/01/22 02:22:07;;;;;;;3.93;3.33;;;;;;;;;;10492259;28;20461;-68
2024/01/22 02:27:07;;;;;;;6.77;3.87;;;;;;;;;;10492260;28;20689;-68
2024/01/22 02:32:07;;;;;;;9.80;5.00;;;;;;;;;;10491942;28;20337;-68
2024/01/22 02:37:07;;;;;;;5.53;3.53;;;;;;;;;;10491944;28;20472;-68
2024/01/22 02:42:07;;;;;;;8.53;4.87;;;;;;;;;;10491837;28;20200;-68
2024/01/22 02:47:08;;;;;;;6.00;4.50;;;;;;;;;;10491496;28;20642;-68
2024/01/22 02:52:08;;;;;;;6.40;4.73;;;;;;;;;;10491420;28;20283;-68
2024/01/22 02:57:10;;;;;;;4.70;3.33;;;;;;;;;;10491422;28;20461;-67
2024/01/22 03:02:11;;;;;;;14.83;6.87;;;;;;;;;;10491360;28;20262;-68
2024/01/22 03:07:11;;;;;;;19.87;10.57;;;;;;;;;;10491058;28;20214;-68
2024/01/22 03:12:11;;;;;;;11.03;4.90;;;;;;;;;;10491162;28;20633;-68
2024/01/22 03:17:11;;;;;;;7.10;4.63;;;;;;;;;;10490907;28;20286;-68
2024/01/22 03:22:11;;;;;;;4.93;2.80;;;;;;;;;;10497937;28;20202;-68
2024/01/22 03:27:11;;;;;;;5.97;3.53;;;;;;;;;;10499115;28;20758;-68
2024/01/22 03:32:12;;;;;;;5.50;3.53;;;;;;;;;;10500160;28;20226;-68
2024/01/22 03:37:12;;;;;;;5.67;3.83;;;;;;;;;;10499771;28;20630;-68
2024/01/22 03:42:12;;;;;;;6.33;4.10;;;;;;;;;;10498863;28;20195;-68
2024/01/22 03:47:12;;;;;;;6.87;4.67;;;;;;;;;;10495143;28;20341;-67
2024/01/22 03:52:12;;;;;;;8.70;4.73;;;;;;;;;;10497135;28;20207;-68
2024/01/22 03:57:12;;;;;;;6.20;3.97;;;;;;;;;;10498371;28;20669;-68
2024/01/22 04:02:13;;;;;;;7.83;4.33;;;;;;;;;;10497836;28;20273;-68
2024/01/22 04:07:13;;;;;;;7.27;4.87;;;;;;;;;;10497836;28;20260;-68
2024/01/22 04:12:13;;;;;;;5.50;3.73;;;;;;;;;;10497533;28;20222;-68
2024/01/22 04:17:13;;;;;;;6.13;3.97;;;;;;;;;;10496808;28;20267;-67
2024/01/22 04:22:13;;;;;;;5.73;3.87;;;;;;;;;;10497279;28;20191;-68
2024/01/22 04:27:14;;;;;;;4.23;2.87;;;;;;;;;;10496451;28;20254;-67
2024/01/22 04:32:14;;;;;;;6.80;3.83;;;;;;;;;;10496741;28;20258;-68
2024/01/22 04:37:14;;;;;;;4.67;2.70;;;;;;;;;;10496580;28;20215;-68
2024/01/22 04:42:20;;;;;;;4.83;3.07;;;;;;;;;;10496639;28;20290;-68
2024/01/22 04:47:20;;;;;;;5.47;3.13;;;;;;;;;;10495160;28;20234;-68
2024/01/22 04:52:21;;;;;;;5.50;3.57;;;;;;;;;;10495825;28;20606;-68
2024/01/22 04:57:21;;;;;;;7.90;4.10;;;;;;;;;;10496114;28;20270;-68
2024/01/22 05:02:27;;;;;;;5.63;4.30;;;;;;;;;;10495536;28;20187;-68
2024/01/22 05:07:27;;;;;;;8.30;4.77;;;;;;;;;;10495561;28;20206;-68
2024/01/22 05:12:27;;;;;;;9.23;5.10;;;;;;;;;;10495294;28;20581;-68
2024/01/22 05:17:28;;;;;;;8.00;4.47;;;;;;;;;;10494978;28;20200;-69
2024/01/22 05:22:28;;;;;;;8.97;4.20;;;;;;;;;;10495006;28;20191;-68
2024/01/22 05:27:29;;;;;;;8.10;4.90;;;;;;;;;;10494438;28;20276;-68
2024/01/22 05:32:32;;;;;;;6.97;4.30;;;;;;;;;;10494559;28;20260;-68
2024/01/22 05:37:32;;;;;;;6.63;3.73;;;;;;;;;;10494167;28;20222;-68
2024/01/22 05:42:32;;;;;;;7.80;4.20;;;;;;;;;;10493505;28;20221;-68
2024/01/22 05:47:32;;;;;;;7.00;4.00;;;;;;;;;;10493653;28;20307;-68
2024/01/22 05:52:33;;;;;;;5.63;3.70;;;;;;;;;;10493453;28;20226;-67
2024/01/22 05:57:33;;;;;;;4.70;3.40;;;;;;;;;;10493473;28;20240;-68
2024/01/22 06:02:33;;;;;;;3.97;2.53;;;;;;;;;;10493186;28;20814;-68
2024/01/22 06:07:33;;;;;;;5.73;3.40;;;;;;;;;;10493146;28;20202;-67
2024/01/22 06:12:34;;;;;;;4.67;2.80;;;;;;;;;;10492827;28;20258;-68
2024/01/22 06:17:34;;;;;;;11.97;3.23;;;;;;;;;;10492639;28;20209;-68
2024/01/22 06:22:35;;;;;;;3.20;1.90;;;;;;;;;;10492512;28;20274;-68
2024/01/22 06:27:35;;;;;;;3.27;2.03;;;;;;;;;;10492131;28;20581;-68
2024/01/22 06:32:35;;;;;;;3.67;2.10;;;;;;;;;;10492199;28;20287;-68
2024/01/22 06:37:35;;;;;;;2.60;2.27;;;;;;;;;;10491882;28;20217;-67
2024/01/22 06:42:36;;;;;;;2.53;2.00;;;;;;;;;;10491961;28;20191;-68
2024/01/22 06:47:36;;;;;;;2.80;2.40;;;;;;;;;;10494395;28;20235;-68
2024/01/22 06:52:36;;;;;;;1.97;1.63;;;;;;;;;;10497112;28;20218;-68
2024/01/22 06:57:36;;;;;;;2.67;2.00;;;;;;;;;;10500700;28;20215;-68
2024/01/22 07:02:41;;;;;;;2.37;1.73;;;;;;;;;;10502138;28;20457;-68
2024/01/22 07:07:41;;;;;;;1.80;1.60;;;;;;;;;;10491206;28;20245;-68
2024/01/22 07:12:41;;;;;;;3.00;1.53;;;;;;;;;;10491204;28;20219;-68
2024/01/22 07:17:42;;;;;;;1.47;1.37;;;;;;;;;;10491101;28;20210;-68
2024/01/22 07:22:42;;;;;;;4.13;1.47;;;;;;;;;;10490861;28;20191;-68
2024/01/22 07:27:44;;;;;;;2.63;1.80;;;;;;;;;;10490930;28;20712;-68
2024/01/22 07:32:45;;;;;;;2.73;1.30;;;;;;;;;;10490762;28;20223;-68
2024/01/22 07:37:45;;;;;;;2.00;1.80;;;;;;;;;;10492014;28;20209;-68
2024/01/22 07:42:45;;;;;;;1.30;1.20;;;;;;;;;;10491866;28;20739;-68
2024/01/22 07:47:45;;;;;;;3.60;1.87;;;;;;;;;;10501431;28;20234;-68
2024/01/22 07:52:45;;;;;;;3.20;1.70;;;;;;;;;;10490590;28;20215;-67
2024/01/22 07:57:46;;;;;;;4.20;3.07;;;;;;;;;;10492563;28;20625;-68
2024/01/22 08:02:46;;;;;;;5.60;3.60;;;;;;;;;;10503266;28;20195;-68
2024/01/22 08:07:46;;;;;;;3.70;2.40;;;;;;;;;;10493788;28;20465;-68
2024/01/22 08:12:47;;;;;;;5.90;2.37;;;;;;;;;;10497683;28;20509;-67
2024/01/22 08:17:47;;;;;;;4.93;3.00;;;;;;;;;;10497600;28;20218;-67
2024/01/22 08:22:47;;;;;;;2.90;2.40;;;;;;;;;;10495487;28;20223;-67
2024/01/22 08:27:47;;;;;;;3.70;3.30;;;;;;;;;;10493250;28;20253;-67
2024/01/22 08:32:48;;;;;;;3.53;2.00;;;;;;;;;;10492322;28;20716;-67
2024/01/22 08:37:52;;;;;;;3.97;2.40;;;;;;;;;;10492746;28;20207;-67
2024/01/22 08:42:53;;;;;;;3.13;2.67;;;;;;;;;;10491724;28;20191;-67
2024/01/22 08:47:54;;;;;;;3.40;2.27;;;;;;;;;;10492612;28;20705;-67
2024/01/22 08:52:54;;;;;;;3.27;2.20;;;;;;;;;;10492461;28;20302;-67
2024/01/22 08:57:54;;;;;;;4.50;3.03;;;;;;;;;;10492072;28;20759;-67
2024/01/22 09:02:55;;;;;;;4.67;2.87;;;;;;;;;;10492560;28;20553;-67
2024/01/22 09:07:55;;;;;;;3.73;2.57;;;;;;;;;;10491552;28;20207;-69
2024/01/22 09:12:55;;;;;;;6.90;4.00;;;;;;;;;;10492049;28;20294;-67
2024/01/22 09:17:55;;;;;;;3.53;2.50;;;;;;;;;;10489436;28;20218;-67
2024/01/22 09:22:55;;;;;;;6.10;2.87;;;;;;;;;;10491492;28;20198;-67
2024/01/22 09:27:55;;;;;;;5.87;2.80;;;;;;;;;;10491168;28;20294;-66
2024/01/22 09:32:58;;;;;;;4.63;2.83;;;;;;;;;;10491013;28;20209;-67
2024/01/22 09:37:58;;;;;;;5.30;3.90;;;;;;;;;;10490723;28;20195;-67
2024/01/22 09:43:03;;;;;;;3.70;2.10;;;;;;;;;;10487857;28;20188;-67
2024/01/22 09:48:04;;;;;;;4.93;2.77;;;;;;;;;;10491788;28;20227;-67
2024/01/22 09:53:08;;;;;;;2.63;1.90;;;;;;;;;;10490206;28;20276;-67
2024/01/22 09:58:09;;;;;;;3.27;2.20;;;;;;;;;;10510986;22;20251;-67
2024/01/22 10:03:09;;;;;;;2.33;2.00;;;;;;;;;;10487897;28;20217;-66
2024/01/22 10:08:10;;;;;;;3.53;2.00;;;;;;;;;;10490834;28;20214;-65
2024/01/22 10:13:10;;;;;;;2.67;2.10;;;;;;;;;;10491127;28;20566;-67
2024/01/22 10:18:10;;;;;;;2.63;1.80;;;;;;;;;;10489671;28;20207;-70
2024/01/22 10:23:11;;;;;;;2.87;1.63;;;;;;;;;;10489121;28;20195;-68
2024/01/22 10:28:18;;;;;;;3.37;1.73;;;;;;;;;;10488985;28;20720;-68
2024/01/22 10:33:20;;;;;;;2.73;2.53;;;;;;;;;;10488392;28;20307;-70
2024/01/22 10:38:20;;;;;;;2.53;1.90;;;;;;;;;;10494154;28;20195;-70
2024/01/22 10:43:26;;;;;;;1.90;1.40;;;;;;;;;;10490891;28;20261;-68
2024/01/22 10:48:29;;;;;;;2.70;2.07;;;;;;;;;;10492710;28;20226;-68
2024/01/22 10:53:29;;;;;;;4.67;1.83;;;;;;;;;;10490333;28;20685;-69
2024/01/22 10:58:32;;;;;;;3.23;2.20;;;;;;;;;;10493807;28;20230;-69
2024/01/22 11:03:34;;;;;;;2.10;1.67;;;;;;;;;;10493938;28;20682;-69
2024/01/22 11:08:35;;;;;;;2.00;1.70;;;;;;;;;;10490936;28;20719;-68
2024/01/22 11:13:35;;;;;;;1.93;1.60;;;;;;;;;;10494517;28;20242;-69
2024/01/22 11:18:36;;;;;;;2.63;1.70;;;;;;;;;;10491717;28;20718;-68
2024/01/22 11:23:36;;;;;;;3.30;1.77;;;;;;;;;;10491809;28;20313;-67
2024/01/22 11:28:36;;;;;;;3.07;1.90;;;;;;;;;;10493068;28;20213;-69
2024/01/22 11:33:36;;;;;;;2.57;1.97;;;;;;;;;;10490534;28;20632;-69
2024/01/22 11:38:51;;;;;;;2.90;1.77;;;;;;;;;;10492963;28;20222;-68
2024/01/22 11:43:51;;;;;;;3.83;2.20;;;;;;;;;;10503192;28;20464;-68
2024/01/22 11:48:51;;;;;;;5.20;2.30;;;;;;;;;;10502024;28;20736;-68
2024/01/22 11:53:53;;;;;;;3.77;2.47;;;;;;;;;;10502794;28;20206;-67
2024/01/22 11:59:03;;;;;;;3.93;2.50;;;;;;;;;;10502019;28;20318;-68
2024/01/22 12:04:09;;;;;;;8.90;5.47;;;;;;;;;;10501171;28;20205;-67
2024/01/22 12:09:09;;;;;;;6.27;2.77;;;;;;;;;;10500267;28;20207;-67
2024/01/22 12:14:11;;;;;;;4.40;2.60;;;;;;;;;;10500325;28;20557;-68
2024/01/22 12:19:11;;;;;;;2.77;1.60;;;;;;;;;;10496417;28;20214;-68
2024/01/22 12:24:14;;;;;;;2.33;2.13;;;;;;;;;;10496126;28;20183;-68
2024/01/22 12:29:24;;;;;;;3.53;1.80;;;;;;;;;;10495815;28;20551;-68
2024/01/22 12:34:24;;;;;;;2.93;1.53;;;;;;;;;;10494130;28;20196;-67
2024/01/22 12:39:24;;;;;;;1.50;1.40;;;;;;;;;;10494531;28;20679;-68
2024/01/22 12:44:25;;;;;;;2.20;1.53;;;;;;;;;;10494516;28;20248;-67
2024/01/22 12:49:25;;;;;;;1.43;1.33;;;;;;;;;;10497017;28;20306;-67
2024/01/22 12:54:25;;;;;;;2.33;1.30;;;;;;;;;;10490874;28;20244;-67
2024/01/22 12:59:26;;;;;;;0.80;0.80;;;;;;;;;;10492029;28;20329;-67
2024/01/22 13:04:26;;;;;;;2.83;1.13;;;;;;;;;;10493948;28;20562;-67
2024/01/22 13:09:26;;;;;;;1.13;0.90;;;;;;;;;;10496451;28;20647;-67
2024/01/22 13:14:26;;;;;;;1.40;1.30;;;;;;;;;;10501001;28;20213;-66
2024/01/22 13:19:26;;;;;;;1.33;1.23;;;;;;;;;;10491893;28;20226;-67
2024/01/22 13:24:27;;;;;;;1.47;1.10;;;;;;;;;;10491411;28;20188;-66
2024/01/22 13:29:28;;;;;;;0.87;0.87;;;;;;;;;;10493327;28;20211;-67
2024/01/22 13:34:28;;;;;;;0.90;0.90;;;;;;;;;;10491599;28;20374;-67
2024/01/22 13:39:28;;;;;;;1.17;0.90;;;;;;;;;;10490825;28;20207;-67
2024/01/22 13:44:28;;;;;;;1.37;0.90;;;;;;;;;;10497930;28;20183;-67
2024/01/22 13:49:28;;;;;;;2.07;1.50;;;;;;;;;;10504894;28;20219;-67
2024/01/22 13:54:28;;;;;;;4.80;2.43;;;;;;;;;;10504212;28;20195;-66
2024/01/22 13:59:29;;;;;;;4.63;2.73;;;;;;;;;;10497793;28;20318;-66
2024/01/22 14:04:31;;;;;;;7.50;3.10;;;;;;;;;;10488030;28;20211;-66
2024/01/22 14:09:31;;;;;;;4.27;2.60;;;;;;;;;;10493725;28;20644;-67
2024/01/22 14:14:31;;;;;;;5.73;3.27;;;;;;;;;;10485709;28;20186;-67
2024/01/22 14:19:32;;;;;;;2.50;1.90;;;;;;;;;;10489492;28;20219;-67
2024/01/22 14:24:32;;;;;;;4.63;2.67;;;;;;;;;;10490673;28;20604;-67
2024/01/22 14:29:32;;;;;;;2.43;1.80;;;;;;;;;;10487869;28;20229;-67
2024/01/22 14:34:32;;;;;;;1.80;1.30;;;;;;;;;;10488944;28;20245;-66
2024/01/22 14:39:33;;;;;;;0.93;0.90;;;;;;;;;;10490458;28;20245;-67
2024/01/22 14:44:33;;;;;;;1.20;1.17;;;;;;;;;;10489819;28;20446;-66
2024/01/22 14:49:33;;;;;;;3.40;3.10;;;;;;;;;;10494870;28;20278;-67
2024/01/22 14:54:34;;;;;;;6.50;4.97;;;;;;;;;;10494045;28;20268;-67
2024/01/22 14:59:40;;;;;;;1.33;1.20;;;;;;;;;;10484371;28;20238;-66
2024/01/22 15:04:40;;;;;;;1.63;1.30;;;;;;;;;;10489664;28;20270;-67
2024/01/22 15:09:41;;;;;;;1.53;1.20;;;;;;;;;;10490058;28;20229;-67
2024/01/22 15:14:41;;;;;;;0.80;0.80;;;;;;;;;;10488625;28;20549;-67
2024/01/22 15:19:41;;;;;;;3.03;1.30;;;;;;;;;;10489066;28;20223;-67
2024/01/22 15:24:41;;;;;;;1.03;1.03;;;;;;;;;;10487619;28;20206;-66
2024/01/22 15:29:43;;;;;;;1.67;1.20;;;;;;;;;;10494458;28;20221;-67
2024/01/22 15:34:43;;;;;;;2.90;0.90;;;;;;;;;;10485923;28;20601;-67
2024/01/22 15:39:45;;;;;;;1.10;1.00;;;;;;;;;;10487049;28;20222;-67
2024/01/22 15:44:45;;;;;;;0.80;0.80;;;;;;;;;;10488156;28;20210;-66
2024/01/22 15:49:45;;;;;;;0.90;0.90;;;;;;;;;;10491602;28;20577;-66
2024/01/22 15:54:46;;;;;;;20.90;8.60;;;;;;;;;;10487698;28;20531;-66
2024/01/22 15:59:46;;;;;;;3.87;2.40;;;;;;;;;;10486186;28;20743;-67
2024/01/22 16:04:46;;;;;;;0.90;0.90;;;;;;;;;;10486397;28;20669;-67
2024/01/22 16:09:47;;;;;;;3.20;1.00;;;;;;;;;;10484286;28;20393;-67
2024/01/22 16:14:48;;;;;;;2.87;2.57;;;;;;;;;;10483313;28;20175;-67
2024/01/22 16:19:48;;;;;;;2.17;2.07;;;;;;;;;;10483712;28;20215;-66
2024/01/22 16:24:49;;;;;;;1.63;1.53;;;;;;;;;;10491590;28;20287;-67
2024/01/22 16:29:50;;;;;;;0.80;0.80;;;;;;;;;;10498270;28;20716;-67
2024/01/22 16:34:50;;;;;;;0.97;0.90;;;;;;;;;;10493945;28;20199;-67
2024/01/22 16:39:51;;;;;;;1.20;1.10;;;;;;;;;;10492679;28;20252;-67
2024/01/22 16:44:52;;;;;;;1.53;1.10;;;;;;;;;;10495518;28;20196;-67
2024/01/22 16:49:53;;;;;;;1.10;1.10;;;;;;;;;;10494464;28;20222;-67
2024/01/22 16:54:53;;;;;;;1.20;1.20;;;;;;;;;;10490159;28;20187;-66
2024/01/22 16:59:54;;;;;;;4.37;3.63;;;;;;;;;;10502095;28;20238;-67
2024/01/22 17:04:54;;;;;;;2.87;1.57;;;;;;;;;;10494876;28;20179;-66
2024/01/22 17:09:54;;;;;;;2.70;1.43;;;;;;;;;;10493778;28;20219;-66
2024/01/22 17:14:54;;;;;;;2.90;1.30;;;;;;;;;;10493765;28;20672;-66
2024/01/22 17:19:55;;;;;;;2.20;1.40;;;;;;;;;;10497019;28;20203;-66
2024/01/22 17:24:55;;;;;;;2.93;1.83;;;;;;;;;;10499418;28;20206;-66
2024/01/22 17:29:55;;;;;;;2.20;1.63;;;;;;;;;;10494271;28;20261;-67
2024/01/22 17:34:55;;;;;;;1.70;1.60;;;;;;;;;;10493132;28;20624;-67
2024/01/22 17:39:56;;;;;;;2.30;1.70;;;;;;;;;;10493898;28;20288;-66
2024/01/22 17:44:58;;;;;;;71.70;34.33;;;;;;;;;;10492213;28;20298;-66
2024/01/22 17:49:58;;;;;;;3.13;2.03;;;;;;;;;;10496089;28;20269;-65
2024/01/22 17:55:00;;;;;;;11.93;7.77;;;;;;;;;;10495216;28;20256;-67
2024/01/22 18:00:03;;;;;;;4.93;3.17;;;;;;;;;;10497307;28;20235;-67
2024/01/22 18:05:05;;;;;;;2.27;2.03;;;;;;;;;;10495030;28;20256;-67
2024/01/22 18:10:05;;;;;;;2.40;1.60;;;;;;;;;;10496787;28;20219;-67
2024/01/22 18:15:05;;;;;;;2.37;1.30;;;;;;;;;;10490347;28;20196;-67
2024/01/22 18:20:06;;;;;;;2.67;1.73;;;;;;;;;;10493181;28;20206;-67
2024/01/22 18:25:06;;;;;;;3.03;1.67;;;;;;;;;;10489872;28;20199;-66
2024/01/22 18:30:10;;;;;;;1.30;1.20;;;;;;;;;;10492450;28;20222;-67
2024/01/22 18:35:10;;;;;;;1.30;1.20;;;;;;;;;;10489816;28;20196;-66
2024/01/22 18:40:11;;;;;;;1.70;1.33;;;;;;;;;;10491854;28;20215;-67
2024/01/22 18:45:11;;;;;;;2.80;1.33;;;;;;;;;;10489868;28;20252;-67
2024/01/22 18:50:11;;;;;;;1.60;1.40;;;;;;;;;;10490438;28;20226;-66
2024/01/22 18:55:11;;;;;;;1.90;1.30;;;;;;;;;;10486280;28;20199;-67
2024/01/22 19:00:12;;;;;;;4.30;1.33;;;;;;;;;;10491417;28;20227;-66
2024/01/22 19:05:12;;;;;;;1.53;1.20;;;;;;;;;;10492020;28;20248;-66
2024/01/22 19:10:12;;;;;;;2.67;1.87;;;;;;;;;;10478683;22;20247;-67
2024/01/22 19:15:12;;;;;;;4.60;2.90;;;;;;;;;;10435493;28;20188;-67
2024/01/22 19:20:13;;;;;;;6.40;1.57;;;;;;;;;;10428383;28;20219;-66
2024/01/22 19:25:13;;;;;;;2.70;1.83;;;;;;;;;;10432531;28;20206;-67
2024/01/22 19:30:13;;;;;;;1.43;1.33;;;;;;;;;;10440184;28;20219;-67
2024/01/22 19:35:15;;;;;;;1.27;1.17;;;;;;;;;;10422121;28;20445;-67
2024/01/22 19:40:16;;;;;;;0.90;0.90;;;;;;;;;;10421984;28;20216;-67
2024/01/22 19:45:16;;;;;;;14.37;6.03;;;;;;;;;;10422289;28;20199;-67
2024/01/22 19:50:17;;;;;;;1.30;1.20;;;;;;;;;;10439144;28;20270;-67
2024/01/22 19:55:17;;;;;;;1.33;1.20;;;;;;;;;;10440908;28;20290;-67
2024/01/22 20:00:17;;;;;;;1.13;1.00;;;;;;;;;;10440416;28;20239;-67
2024/01/22 20:05:17;;;;;;;1.20;1.10;;;;;;;;;;10446635;28;20266;-67
2024/01/22 20:10:20;;;;;;;1.03;1.03;;;;;;;;;;10447498;28;20485;-67
2024/01/22 20:15:21;;;;;;;4.07;1.20;;;;;;;;;;10434712;28;20282;-67
2024/01/22 20:20:21;;;;;;;2.00;1.00;;;;;;;;;;10444508;28;20560;-67
2024/01/22 20:25:21;;;;;;;4.17;2.13;;;;;;;;;;10434747;28;20191;-66
2024/01/22 20:30:21;;;;;;;4.63;1.70;;;;;;;;;;10440097;28;21093;-66
2024/01/22 20:35:21;;;;;;;3.17;1.10;;;;;;;;;;10444965;28;20219;-66
2024/01/22 20:40:22;;;;;;;1.77;1.00;;;;;;;;;;10447008;28;20273;-67
2024/01/22 20:45:22;;;;;;;4.07;1.50;;;;;;;;;;10436150;28;20194;-67
2024/01/22 20:50:22;;;;;;;7.67;3.27;;;;;;;;;;10445987;28;20214;-67
2024/01/22 20:55:24;;;;;;;1.23;1.13;;;;;;;;;;10442204;28;20279;-67
2024/01/22 21:00:26;;;;;;;2.67;1.40;;;;;;;;;;10427527;28;20263;-67
2024/01/22 21:05:27;;;;;;;1.77;1.23;;;;;;;;;;10429996;28;20185;-67
2024/01/22 21:10:27;;;;;;;4.03;1.53;;;;;;;;;;10426588;28;20327;-68
2024/01/22 21:15:28;;;;;;;2.33;1.20;;;;;;;;;;10428378;28;20195;-67
2024/01/22 21:20:28;;;;;;;4.57;1.20;;;;;;;;;;10426970;28;20212;-67
2024/01/22 21:25:28;;;;;;;5.13;1.40;;;;;;;;;;10432023;28;20196;-67
2024/01/22 21:30:29;;;;;;;3.40;1.30;;;;;;;;;;10426385;28;20212;-67
2024/01/22 21:35:29;;;;;;;1.20;1.10;;;;;;;;;;10426515;28;20193;-67
2024/01/22 21:40:29;;;;;;;2.87;1.60;;;;;;;;;;10428930;28;20211;-67
2024/01/22 21:45:29;;;;;;;3.87;1.63;;;;;;;;;;10426033;28;20446;-67
2024/01/22 21:50:29;;;;;;;2.60;1.27;;;;;;;;;;10425851;28;20225;-67
2024/01/22 21:55:30;;;;;;;4.03;1.73;;;;;;;;;;10425158;28;20185;-67
2024/01/22 22:00:30;;;;;;;5.93;1.70;;;;;;;;;;10428074;28;20315;-67
2024/01/22 22:05:31;;;;;;;6.17;2.10;;;;;;;;;;10424916;28;20681;-67
2024/01/22 22:10:32;;;;;;;2.33;1.40;;;;;;;;;;10424671;28;20487;-67
2024/01/22 22:15:33;;;;;;;5.03;2.33;;;;;;;;;;10425019;28;20192;-67
2024/01/22 22:20:33;;;;;;;2.77;1.43;;;;;;;;;;10427008;28;20208;-67
2024/01/22 22:25:33;;;;;;;6.87;1.87;;;;;;;;;;10424381;28;20192;-67
2024/01/22 22:30:33;;;;;;;5.13;1.80;;;;;;;;;;10424012;28;20220;-67
2024/01/22 22:35:33;;;;;;;8.23;1.70;;;;;;;;;;10424161;28;20189;-67
2024/01/22 22:40:34;;;;;;;5.97;1.80;;;;;;;;;;10426413;28;20217;-67
2024/01/22 22:45:34;;;;;;;3.97;1.23;;;;;;;;;;10423717;28;20201;-66
2024/01/22 22:50:34;;;;;;;9.60;2.20;;;;;;;;;;10423634;28;20333;-67
2024/01/22 22:55:36;;;;;;;7.40;1.60;;;;;;;;;;10423409;28;20253;-67
2024/01/22 23:00:36;;;;;;;13.80;2.47;;;;;;;;;;10425868;28;20216;-67
2024/01/22 23:05:36;;;;;;;11.70;2.20;;;;;;;;;;10423146;28;20196;-67
2024/01/22 23:10:36;;;;;;;8.20;2.03;;;;;;;;;;10422998;28;20608;-67
2024/01/22 23:15:37;;;;;;;5.13;1.30;;;;;;;;;;10425566;28;20188;-67
2024/01/22 23:20:38;;;;;;;8.53;2.30;;;;;;;;;;10422763;28;20212;-66
2024/01/22 23:25:38;;;;;;;6.53;1.53;;;;;;;;;;10423000;28;20899;-67
2024/01/22 23:30:38;;;;;;;6.77;1.83;;;;;;;;;;10422488;28;20217;-67
2024/01/22 23:35:38;;;;;;;7.80;2.20;;;;;;;;;;10426105;28;20192;-67
2024/01/22 23:40:39;;;;;;;7.37;2.00;;;;;;;;;;10431009;28;20585;-67
2024/01/22 23:45:39;;;;;;;14.27;2.50;;;;;;;;;;10431005;28;20192;-67
2024/01/22 23:50:39;;;;;;;6.80;1.77;;;;;;;;;;10430343;28;20220;-67
2024/01/22 23:55:39;;;;;;;7.77;2.30;;;;;;;;;;10434813;28;20285;-67
